05U

Eureka Airport

Eureka, Nevada, USA
METAR K05U 210335Z AUTO 34004KT 10SM CLR 07/M06 A3024 RMK A01
Observed Flight Rules
Apr-21 @ 03:35 UTC (25 minutes ago) Visual Flight Rules
Wind Visibility Clouds
340° at 4 knots 10 miles
  • Clear skies
Temperatures Readings
Current 7°C / 45°F
Dewpoint -6°C / 21°F
Humidity 39%
Altimeter 30.24" Hg
Pressure 1024 hPa
Elevation 1816
METAR K05U 210335Z AUTO 34004KT 10SM CLR 07/M06 A3024 RMK A01
Observed Flight Rules
Apr-21 @ 03:35 UTC
(25 minutes ago)
VFR
Wind Visibility
340° at 4 knots 10 miles
Clouds
  • Clear skies
Temperature Dewpoint
7°C / 45°F -6°C / 21°F
Humidity Altimeter Pressure
39% 30.24" Hg 1024 hPa